Time;durP1;ratioP1;P1;durP2;ratioP2;P2;SDS_P1;SDS_P2;PMS_P1;PMS_P2;Temp;Humidity;BMP_temperature;BMP_pressure;BME280_temperature;BME280_humidity;BME280_pressure;Samples;Min_cycle;Max_cycle;Signal;HPM_P1;HPM_P2
2022/02/02 00:02:25;;;;;;;6.90;4.10;;;;;;;;;;774114;179;918699;-76
2022/02/02 00:04:46;;;;;;;4.30;3.17;;;;;;;;;;777156;177;918506;-77
2022/02/02 00:07:31;;;;;;;6.43;4.40;;;;;;;;;;771342;181;920932;-78
2022/02/02 00:09:50;;;;;;;4.20;3.00;;;;;;;;;;773509;179;920589;-78
2022/02/02 00:12:14;;;;;;;6.55;4.85;;;;;;;;;;775404;178;914765;-78
2022/02/02 00:14:53;;;;;;;7.20;3.60;;;;;;;;;;776024;180;916187;-78
2022/02/02 00:17:17;;;;;;;5.37;4.00;;;;;;;;;;778254;180;812419;-78
2022/02/02 00:19:46;;;;;;;6.13;4.10;;;;;;;;;;767523;180;915112;-79
2022/02/02 00:22:13;;;;;;;7.15;3.62;;;;;;;;;;768722;180;915855;-77
2022/02/02 00:24:51;;;;;;;7.93;5.10;;;;;;;;;;777392;178;1017245;-78
2022/02/02 00:27:05;;;;;;;5.87;4.23;;;;;;;;;;760333;181;914102;-78
2022/02/02 00:29:33;;;;;;;7.83;5.50;;;;;;;;;;772022;179;914858;-79
2022/02/02 00:32:02;;;;;;;7.30;4.50;;;;;;;;;;772509;180;1018072;-79
2022/02/02 00:34:23;;;;;;;9.00;5.90;;;;;;;;;;774493;180;918753;-79
2022/02/02 00:36:49;;;;;;;8.68;5.95;;;;;;;;;;769324;177;918610;-80
2022/02/02 00:39:10;;;;;;;9.50;5.97;;;;;;;;;;754136;184;815770;-79
2022/02/02 00:41:36;;;;;;;7.00;4.60;;;;;;;;;;752843;186;1021624;-78
2022/02/02 00:44:03;;;;;;;9.07;6.37;;;;;;;;;;745232;186;916829;-80
2022/02/02 00:46:28;;;;;;;9.23;5.00;;;;;;;;;;765954;180;1020400;-79
2022/02/02 00:48:59;;;;;;;9.40;6.00;;;;;;;;;;779492;179;861510;-81
2022/02/02 00:51:23;;;;;;;10.60;5.73;;;;;;;;;;774938;179;918230;-80
2022/02/02 00:53:45;;;;;;;7.67;5.90;;;;;;;;;;775945;178;918440;-80
2022/02/02 00:56:11;;;;;;;11.52;8.07;;;;;;;;;;772839;179;915323;-79
2022/02/02 00:58:36;;;;;;;12.03;8.30;;;;;;;;;;766341;180;916607;-79
2022/02/02 01:01:02;;;;;;;10.10;6.77;;;;;;;;;;763130;180;916534;-81
2022/02/02 01:03:29;;;;;;;12.63;7.87;;;;;;;;;;774305;178;811765;-80
2022/02/02 01:05:54;;;;;;;9.73;5.70;;;;;;;;;;778445;180;816166;-81
2022/02/02 01:08:51;;;;;;;8.70;6.40;;;;;;;;;;774738;179;917968;-80
2022/02/02 01:11:44;;;;;;;11.73;7.73;;;;;;;;;;773219;176;919178;-79
2022/02/02 01:19:25;;;;;;;9.57;6.60;;;;;;;;;;765589;179;815742;-79
2022/02/02 01:21:44;;;;;;;8.97;6.70;;;;;;;;;;769925;177;918902;-80
2022/02/02 01:28:59;;;;;;;9.10;6.63;;;;;;;;;;775019;177;911310;-79
2022/02/02 01:31:25;;;;;;;13.07;7.20;;;;;;;;;;775528;180;917844;-80
2022/02/02 01:33:51;;;;;;;7.63;5.33;;;;;;;;;;771054;178;919132;-78
2022/02/02 01:36:16;;;;;;;8.10;5.60;;;;;;;;;;772373;178;918948;-79
2022/02/02 01:38:44;;;;;;;8.40;5.03;;;;;;;;;;769749;180;978700;-83
2022/02/02 01:41:26;;;;;;;4.57;3.47;;;;;;;;;;779178;177;1193062;-80
2022/02/02 01:47:01;;;;;;;6.60;4.60;;;;;;;;;;750038;183;1021335;-82
2022/02/02 01:50:05;;;;;;;6.50;3.70;;;;;;;;;;751964;179;918084;-85
2022/02/02 01:54:53;;;;;;;7.47;3.30;;;;;;;;;;767075;181;1010589;-82
2022/02/02 01:57:11;;;;;;;8.40;4.87;;;;;;;;;;770986;179;816152;-80
2022/02/02 01:59:39;;;;;;;5.60;3.50;;;;;;;;;;773463;179;918192;-84
2022/02/02 02:01:55;;;;;;;8.20;5.63;;;;;;;;;;772873;181;917401;-81
2022/02/02 02:04:21;;;;;;;8.30;5.10;;;;;;;;;;767645;180;919126;-84
2022/02/02 02:06:47;;;;;;;7.83;5.10;;;;;;;;;;765113;180;848815;-85
2022/02/02 02:09:13;;;;;;;8.00;5.33;;;;;;;;;;775512;178;831464;-80
2022/02/02 02:11:43;;;;;;;6.90;5.13;;;;;;;;;;780293;180;816606;-83
2022/02/02 02:14:39;;;;;;;8.40;5.87;;;;;;;;;;773480;180;918932;-82
2022/02/02 02:16:51;;;;;;;7.60;6.20;;;;;;;;;;773225;178;918695;-82
2022/02/02 02:19:16;;;;;;;8.50;4.97;;;;;;;;;;771504;179;933252;-80
2022/02/02 02:21:42;;;;;;;7.20;4.97;;;;;;;;;;778879;179;917540;-81
2022/02/02 02:24:08;;;;;;;8.23;5.10;;;;;;;;;;779036;179;816696;-83
2022/02/02 02:26:39;;;;;;;6.37;4.32;;;;;;;;;;768580;179;917025;-81
2022/02/02 02:29:18;;;;;;;10.15;5.65;;;;;;;;;;771202;179;917942;-80
2022/02/02 02:31:40;;;;;;;8.27;4.90;;;;;;;;;;777801;179;917692;-82
2022/02/02 02:34:21;;;;;;;6.40;4.83;;;;;;;;;;772704;178;1032978;-86
2022/02/02 02:56:53;;;;;;;6.87;5.03;;;;;;;;;;781982;180;838830;-83
2022/02/02 02:59:32;;;;;;;7.37;4.60;;;;;;;;;;773993;180;917969;-83
2022/02/02 03:02:17;;;;;;;8.17;3.87;;;;;;;;;;769747;177;851968;-83
2022/02/02 03:29:47;;;;;;;8.53;5.33;;;;;;;;;;771570;177;918652;-83
2022/02/02 03:29:57;;;;;;;7.80;4.53;;;;;;;;;;763502;180;1020906;-82
2022/02/02 03:35:13;;;;;;;9.27;6.53;;;;;;;;;;769264;180;918519;-83
2022/02/02 03:50:41;;;;;;;12.57;4.23;;;;;;;;;;783672;180;918435;-83
2022/02/02 03:55:47;;;;;;;5.70;3.87;;;;;;;;;;761386;179;817122;-83
2022/02/02 03:58:18;;;;;;;6.90;3.73;;;;;;;;;;750566;186;987402;-81
2022/02/02 04:00:56;;;;;;;4.10;3.20;;;;;;;;;;772026;178;897929;-80
2022/02/02 04:03:32;;;;;;;5.40;3.00;;;;;;;;;;774296;178;918533;-80
2022/02/02 04:05:45;;;;;;;8.03;4.17;;;;;;;;;;772029;178;1010885;-80
2022/02/02 04:08:23;;;;;;;5.43;2.83;;;;;;;;;;766553;181;825495;-78
2022/02/02 04:10:35;;;;;;;7.07;2.80;;;;;;;;;;773082;180;915224;-79
2022/02/02 04:13:18;;;;;;;4.70;3.40;;;;;;;;;;774660;180;918786;-78
2022/02/02 04:16:56;;;;;;;11.10;3.83;;;;;;;;;;771930;178;918714;-77
2022/02/02 04:39:01;;;;;;;5.93;2.80;;;;;;;;;;776917;180;919404;-76
2022/02/02 04:51:50;;;;;;;10.73;2.70;;;;;;;;;;781276;177;909047;-74
2022/02/02 04:54:23;;;;;;;5.93;2.70;;;;;;;;;;780435;179;922356;-75
2022/02/02 04:57:20;;;;;;;6.53;3.30;;;;;;;;;;776978;180;912948;-76
2022/02/02 04:59:26;;;;;;;3.60;2.30;;;;;;;;;;774342;179;819167;-75
2022/02/02 05:05:11;;;;;;;7.07;2.83;;;;;;;;;;775727;180;916314;-76
2022/02/02 05:07:04;;;;;;;11.57;4.13;;;;;;;;;;775640;178;891574;-76
2022/02/02 05:12:50;;;;;;;7.80;3.60;;;;;;;;;;771135;181;814508;-76
2022/02/02 05:23:04;;;;;;;7.70;3.40;;;;;;;;;;769867;178;953499;-76
2022/02/02 05:25:36;;;;;;;6.73;3.10;;;;;;;;;;770829;180;714929;-77
2022/02/02 05:43:17;;;;;;;4.67;2.03;;;;;;;;;;776817;180;916257;-75
2022/02/02 05:50:37;;;;;;;3.03;1.57;;;;;;;;;;773287;179;923762;-74
2022/02/02 05:52:46;;;;;;;3.83;2.03;;;;;;;;;;769867;179;918770;-74
2022/02/02 05:55:12;;;;;;;5.00;1.85;;;;;;;;;;771745;180;918019;-74
2022/02/02 05:57:37;;;;;;;2.40;1.50;;;;;;;;;;773358;178;918034;-73
2022/02/02 06:00:04;;;;;;;4.30;1.63;;;;;;;;;;774662;179;918947;-72
2022/02/02 06:02:30;;;;;;;3.50;1.73;;;;;;;;;;780199;180;919610;-74
2022/02/02 06:04:56;;;;;;;5.17;2.17;;;;;;;;;;771429;179;914884;-76
2022/02/02 06:07:22;;;;;;;7.60;3.87;;;;;;;;;;761945;180;935782;-75
2022/02/02 06:09:49;;;;;;;7.47;3.17;;;;;;;;;;776183;178;918488;-75
2022/02/02 06:12:14;;;;;;;4.87;2.30;;;;;;;;;;774767;180;815856;-74
2022/02/02 06:14:40;;;;;;;3.83;2.40;;;;;;;;;;772541;179;1021012;-74
2022/02/02 06:17:08;;;;;;;4.37;3.10;;;;;;;;;;776720;179;851909;-75
2022/02/02 06:19:31;;;;;;;5.60;2.70;;;;;;;;;;765860;180;815692;-77
2022/02/02 06:21:57;;;;;;;7.53;3.77;;;;;;;;;;770007;181;919226;-76
2022/02/02 06:24:23;;;;;;;8.23;2.67;;;;;;;;;;775266;180;1019633;-76
2022/02/02 06:26:49;;;;;;;3.93;2.20;;;;;;;;;;780142;180;915268;-72
2022/02/02 06:29:14;;;;;;;5.13;2.77;;;;;;;;;;773311;180;918780;-72
2022/02/02 06:31:40;;;;;;;5.00;2.13;;;;;;;;;;776298;180;632954;-71
2022/02/02 06:34:06;;;;;;;3.03;1.83;;;;;;;;;;771094;178;918989;-71
2022/02/02 06:36:32;;;;;;;4.33;1.87;;;;;;;;;;753823;183;1020620;-70
2022/02/02 06:38:58;;;;;;;3.07;1.70;;;;;;;;;;764635;180;918731;-69
2022/02/02 06:41:24;;;;;;;6.30;2.97;;;;;;;;;;772098;180;921758;-71
2022/02/02 06:43:50;;;;;;;4.60;3.03;;;;;;;;;;770722;180;919157;-71
2022/02/02 06:46:16;;;;;;;3.93;1.97;;;;;;;;;;765515;180;919087;-71
2022/02/02 06:48:41;;;;;;;4.23;2.07;;;;;;;;;;769332;180;918954;-72
2022/02/02 06:51:14;;;;;;;11.97;2.53;;;;;;;;;;780731;179;918842;-72
2022/02/02 06:53:38;;;;;;;15.53;2.20;;;;;;;;;;775249;180;919130;-73
2022/02/02 06:56:13;;;;;;;6.33;1.83;;;;;;;;;;772047;180;919182;-73
2022/02/02 06:58:49;;;;;;;4.13;1.97;;;;;;;;;;766891;184;918497;-74
2022/02/02 07:01:15;;;;;;;10.33;2.47;;;;;;;;;;776345;178;1020437;-74
2022/02/02 07:03:59;;;;;;;6.37;3.10;;;;;;;;;;774068;178;919032;-73
2022/02/02 07:06:28;;;;;;;5.10;2.67;;;;;;;;;;766192;180;922760;-73
2022/02/02 07:08:58;;;;;;;5.83;2.63;;;;;;;;;;765128;180;918779;-72
2022/02/02 07:11:24;;;;;;;4.40;2.62;;;;;;;;;;771326;180;918601;-72
2022/02/02 07:14:07;;;;;;;6.40;2.93;;;;;;;;;;769100;180;919847;-71
2022/02/02 07:16:34;;;;;;;6.00;3.17;;;;;;;;;;773741;181;918192;-72
2022/02/02 07:19:07;;;;;;;6.60;3.07;;;;;;;;;;765109;181;918925;-71
2022/02/02 07:27:12;;;;;;;8.90;3.20;;;;;;;;;;768211;178;917999;-71
2022/02/02 07:29:34;;;;;;;6.80;2.90;;;;;;;;;;763295;180;917988;-71
2022/02/02 07:31:57;;;;;;;12.07;3.67;;;;;;;;;;776475;181;919126;-72
2022/02/02 07:34:22;;;;;;;15.33;3.80;;;;;;;;;;768795;180;924227;-70
2022/02/02 07:36:45;;;;;;;9.70;3.30;;;;;;;;;;756158;182;917916;-70
2022/02/02 07:39:13;;;;;;;6.20;2.70;;;;;;;;;;768223;179;918065;-69
2022/02/02 07:41:39;;;;;;;6.73;2.80;;;;;;;;;;768368;181;915253;-70
2022/02/02 07:44:09;;;;;;;7.00;3.17;;;;;;;;;;771680;180;917747;-69
2022/02/02 07:46:29;;;;;;;9.00;3.60;;;;;;;;;;774138;178;915223;-68
2022/02/02 07:48:55;;;;;;;10.07;3.83;;;;;;;;;;777733;179;916823;-68
2022/02/02 07:51:21;;;;;;;6.47;3.07;;;;;;;;;;773903;181;915215;-69
2022/02/02 07:53:50;;;;;;;7.00;3.00;;;;;;;;;;770837;180;919124;-69
2022/02/02 07:56:16;;;;;;;6.40;3.33;;;;;;;;;;772461;181;919377;-70
2022/02/02 07:58:42;;;;;;;7.80;2.73;;;;;;;;;;766682;181;919601;-69
2022/02/02 08:01:06;;;;;;;9.40;3.60;;;;;;;;;;765861;180;919140;-70
2022/02/02 08:03:37;;;;;;;9.87;3.63;;;;;;;;;;773132;179;919237;-70
2022/02/02 08:06:01;;;;;;;20.97;4.07;;;;;;;;;;777109;180;917179;-69
2022/02/02 08:08:31;;;;;;;14.77;4.83;;;;;;;;;;779294;177;816285;-70
2022/02/02 08:10:52;;;;;;;10.63;3.60;;;;;;;;;;776101;179;918713;-69
2022/02/02 08:13:21;;;;;;;17.73;5.30;;;;;;;;;;777148;181;918208;-69
2022/02/02 08:15:43;;;;;;;13.43;4.20;;;;;;;;;;774277;178;918636;-68
2022/02/02 08:18:10;;;;;;;11.70;4.60;;;;;;;;;;773880;180;920244;-69
2022/02/02 08:20:36;;;;;;;10.07;4.13;;;;;;;;;;773519;178;918871;-70
2022/02/02 08:23:01;;;;;;;11.83;4.87;;;;;;;;;;779629;180;919778;-70
2022/02/02 08:25:29;;;;;;;18.10;4.03;;;;;;;;;;766395;177;916178;-70
2022/02/02 08:27:54;;;;;;;8.63;3.93;;;;;;;;;;765682;177;812512;-68
2022/02/02 08:30:21;;;;;;;10.47;4.10;;;;;;;;;;782537;177;915388;-68
2022/02/02 08:32:50;;;;;;;5.40;4.10;;;;;;;;;;778074;177;910014;-67
2022/02/02 08:35:12;;;;;;;8.00;3.40;;;;;;;;;;765424;181;919061;-68
2022/02/02 08:37:42;;;;;;;7.25;3.85;;;;;;;;;;779354;180;817837;-69
2022/02/02 08:40:20;;;;;;;10.90;4.07;;;;;;;;;;775533;178;915442;-68
2022/02/02 08:42:33;;;;;;;12.30;4.47;;;;;;;;;;762131;180;914103;-68
2022/02/02 08:45:17;;;;;;;6.67;4.67;;;;;;;;;;771902;181;911087;-68
2022/02/02 08:47:28;;;;;;;6.10;4.37;;;;;;;;;;774312;180;914066;-68
2022/02/02 08:49:57;;;;;;;10.33;4.63;;;;;;;;;;776027;180;916667;-66
2022/02/02 08:52:29;;;;;;;12.80;4.00;;;;;;;;;;775438;179;916261;-68
2022/02/02 08:54:47;;;;;;;11.00;3.80;;;;;;;;;;773621;180;918513;-67
2022/02/02 08:57:27;;;;;;;13.13;4.23;;;;;;;;;;767138;180;971141;-67
2022/02/02 08:59:52;;;;;;;15.00;5.07;;;;;;;;;;761234;178;920730;-67
2022/02/02 09:02:13;;;;;;;12.87;5.10;;;;;;;;;;774188;177;917853;-67
2022/02/02 09:07:07;;;;;;;14.50;4.57;;;;;;;;;;771941;178;918992;-67
2022/02/02 09:24:49;;;;;;;12.80;5.17;;;;;;;;;;770926;180;919195;-67
2022/02/02 09:32:55;;;;;;;15.23;4.10;;;;;;;;;;776551;179;1021412;-67
2022/02/02 09:35:11;;;;;;;9.10;4.90;;;;;;;;;;778010;178;918757;-67
2022/02/02 09:37:38;;;;;;;16.50;4.33;;;;;;;;;;768335;178;918415;-67
2022/02/02 09:40:30;;;;;;;10.35;4.07;;;;;;;;;;774189;178;919521;-67
2022/02/02 09:42:34;;;;;;;14.70;6.13;;;;;;;;;;775279;180;918589;-67
2022/02/02 09:45:05;;;;;;;10.70;5.00;;;;;;;;;;776029;177;919874;-68
2022/02/02 09:47:31;;;;;;;12.30;4.70;;;;;;;;;;774084;179;919601;-67
2022/02/02 09:49:58;;;;;;;7.83;3.07;;;;;;;;;;762852;178;1021061;-67
2022/02/02 09:52:20;;;;;;;10.10;4.30;;;;;;;;;;778926;180;918852;-67
2022/02/02 09:55:00;;;;;;;10.45;5.37;;;;;;;;;;766588;180;865422;-68
2022/02/02 09:57:50;;;;;;;6.53;4.90;;;;;;;;;;762903;180;918642;-67
2022/02/02 10:00:15;;;;;;;16.63;4.97;;;;;;;;;;767253;179;918010;-67
2022/02/02 10:02:34;;;;;;;7.73;3.57;;;;;;;;;;764764;181;919086;-66
2022/02/02 10:05:31;;;;;;;10.53;3.60;;;;;;;;;;770369;180;918011;-68
2022/02/02 10:07:55;;;;;;;7.10;3.80;;;;;;;;;;779493;180;919912;-68
2022/02/02 10:10:22;;;;;;;10.53;4.30;;;;;;;;;;769082;177;918819;-68
2022/02/02 10:12:49;;;;;;;12.30;4.17;;;;;;;;;;761350;182;919568;-66
2022/02/02 10:15:03;;;;;;;5.72;2.25;;;;;;;;;;776027;180;918924;-67
2022/02/02 10:17:23;;;;;;;15.50;5.37;;;;;;;;;;770764;178;919700;-66
2022/02/02 10:19:49;;;;;;;4.93;2.80;;;;;;;;;;771689;181;919074;-67
2022/02/02 10:22:19;;;;;;;22.40;4.80;;;;;;;;;;779692;180;816934;-64
2022/02/02 10:24:44;;;;;;;13.93;4.40;;;;;;;;;;778818;180;918330;-67
2022/02/02 10:27:28;;;;;;;11.23;3.50;;;;;;;;;;772817;180;919759;-65
2022/02/02 10:29:53;;;;;;;9.23;2.93;;;;;;;;;;772852;181;919297;-68
2022/02/02 10:32:36;;;;;;;7.33;2.93;;;;;;;;;;774440;181;919383;-68
2022/02/02 10:35:01;;;;;;;4.90;1.97;;;;;;;;;;773694;180;854016;-67
2022/02/02 10:37:30;;;;;;;8.90;3.17;;;;;;;;;;778953;180;919001;-67
2022/02/02 10:39:53;;;;;;;9.93;2.90;;;;;;;;;;773743;178;877907;-68
2022/02/02 10:42:25;;;;;;;7.53;3.03;;;;;;;;;;771236;179;910959;-67
2022/02/02 10:44:57;;;;;;;6.70;3.17;;;;;;;;;;772946;177;919052;-67
2022/02/02 10:47:25;;;;;;;13.70;2.97;;;;;;;;;;782754;180;918599;-65
2022/02/02 10:52:41;;;;;;;11.90;3.53;;;;;;;;;;777139;180;919077;-66
2022/02/02 10:55:46;;;;;;;15.03;4.00;;;;;;;;;;774710;177;917659;-66
2022/02/02 10:58:03;;;;;;;16.10;4.33;;;;;;;;;;773672;179;921114;-66
2022/02/02 11:00:29;;;;;;;6.97;3.27;;;;;;;;;;764819;183;918728;-66
2022/02/02 11:07:43;;;;;;;10.30;3.47;;;;;;;;;;779544;180;876901;-68
2022/02/02 11:10:09;;;;;;;8.47;4.00;;;;;;;;;;762285;180;919359;-66
2022/02/02 11:12:38;;;;;;;8.83;2.70;;;;;;;;;;771883;180;917785;-67
2022/02/02 11:15:05;;;;;;;11.73;4.50;;;;;;;;;;776465;178;920109;-66
2022/02/02 11:17:38;;;;;;;13.80;4.20;;;;;;;;;;774381;181;917451;-67
2022/02/02 11:20:02;;;;;;;6.77;3.90;;;;;;;;;;774057;179;918998;-67
2022/02/02 11:22:31;;;;;;;13.90;4.27;;;;;;;;;;764152;177;945686;-67
2022/02/02 11:24:59;;;;;;;22.53;7.63;;;;;;;;;;760740;178;915759;-67
2022/02/02 11:27:31;;;;;;;10.27;3.50;;;;;;;;;;767558;180;915866;-67
2022/02/02 11:29:57;;;;;;;9.33;3.90;;;;;;;;;;774137;177;919083;-67
2022/02/02 11:32:23;;;;;;;9.33;4.23;;;;;;;;;;773149;180;949048;-65
2022/02/02 11:34:49;;;;;;;13.27;3.20;;;;;;;;;;775789;180;918426;-65
2022/02/02 11:37:14;;;;;;;10.13;3.63;;;;;;;;;;755716;182;918934;-66
2022/02/02 11:39:58;;;;;;;5.80;3.40;;;;;;;;;;763671;180;918920;-66
2022/02/02 11:42:22;;;;;;;8.63;2.73;;;;;;;;;;773187;178;921921;-65
2022/02/02 11:47:27;;;;;;;8.53;4.00;;;;;;;;;;774074;178;921079;-65
2022/02/02 11:49:56;;;;;;;8.50;3.00;;;;;;;;;;761217;181;942525;-65
2022/02/02 11:52:25;;;;;;;7.93;3.00;;;;;;;;;;772643;180;919258;-64
2022/02/02 11:54:52;;;;;;;11.23;3.20;;;;;;;;;;772925;180;922143;-65
2022/02/02 11:57:21;;;;;;;13.85;2.75;;;;;;;;;;781111;176;1002449;-64
2022/02/02 11:59:55;;;;;;;6.30;2.90;;;;;;;;;;768786;180;919056;-65
2022/02/02 12:02:21;;;;;;;4.17;2.13;;;;;;;;;;769687;181;919230;-64
2022/02/02 12:04:52;;;;;;;4.37;2.13;;;;;;;;;;766497;180;919636;-63
2022/02/02 12:07:17;;;;;;;9.77;2.50;;;;;;;;;;778462;181;918330;-64
2022/02/02 12:09:51;;;;;;;5.50;2.23;;;;;;;;;;773329;180;946717;-64
2022/02/02 12:20:47;;;;;;;6.30;2.20;;;;;;;;;;772769;178;919006;-67
2022/02/02 12:46:01;;;;;;;7.50;2.43;;;;;;;;;;771229;180;919192;-66
2022/02/02 12:47:57;;;;;;;4.07;2.07;;;;;;;;;;778640;180;907094;-65
2022/02/02 12:58:30;;;;;;;4.00;2.43;;;;;;;;;;763227;181;919757;-65
2022/02/02 13:01:08;;;;;;;6.20;1.57;;;;;;;;;;755939;181;920064;-70
2022/02/02 13:03:17;;;;;;;3.10;1.63;;;;;;;;;;742297;186;918321;-64
2022/02/02 13:05:43;;;;;;;4.30;1.17;;;;;;;;;;758458;184;919088;-66
2022/02/02 13:08:08;;;;;;;2.40;1.00;;;;;;;;;;752858;183;918394;-66
2022/02/02 13:10:34;;;;;;;4.83;1.50;;;;;;;;;;739974;188;917794;-66
2022/02/02 13:13:07;;;;;;;2.83;2.10;;;;;;;;;;776602;180;917368;-65
2022/02/02 13:15:40;;;;;;;6.27;3.57;;;;;;;;;;778463;177;919569;-65
2022/02/02 13:18:43;;;;;;;7.53;2.87;;;;;;;;;;776051;178;920163;-66
2022/02/02 13:21:08;;;;;;;4.30;1.83;;;;;;;;;;769726;177;990041;-66
2022/02/02 13:23:39;;;;;;;5.10;2.27;;;;;;;;;;763335;180;916134;-65
2022/02/02 13:26:02;;;;;;;3.17;1.60;;;;;;;;;;774290;176;922944;-66
2022/02/02 13:28:32;;;;;;;5.20;2.70;;;;;;;;;;769500;177;918697;-64
2022/02/02 13:30:57;;;;;;;5.00;2.60;;;;;;;;;;768057;181;914998;-65
2022/02/02 13:33:31;;;;;;;3.50;1.67;;;;;;;;;;772678;177;914189;-65
2022/02/02 13:36:01;;;;;;;8.10;2.73;;;;;;;;;;773087;178;919417;-64
2022/02/02 13:38:37;;;;;;;7.20;3.00;;;;;;;;;;771513;179;918993;-67
2022/02/02 13:43:51;;;;;;;5.43;2.60;;;;;;;;;;771118;180;917545;-64
2022/02/02 13:48:54;;;;;;;11.50;2.67;;;;;;;;;;770932;181;919748;-64
2022/02/02 13:54:11;;;;;;;6.60;2.90;;;;;;;;;;771582;178;918126;-64
2022/02/02 13:56:59;;;;;;;9.30;2.70;;;;;;;;;;774619;178;919236;-64
2022/02/02 13:59:22;;;;;;;6.65;2.70;;;;;;;;;;772357;180;922746;-64
2022/02/02 14:01:39;;;;;;;4.93;2.60;;;;;;;;;;773200;180;918979;-64
2022/02/02 14:04:07;;;;;;;7.47;2.30;;;;;;;;;;771236;180;918789;-64
2022/02/02 14:09:09;;;;;;;5.00;2.30;;;;;;;;;;778273;181;919074;-64
2022/02/02 14:31:49;;;;;;;6.30;3.20;;;;;;;;;;773394;178;947568;-64
2022/02/02 14:34:15;;;;;;;8.00;3.13;;;;;;;;;;770258;180;1021860;-64
2022/02/02 14:36:41;;;;;;;3.62;2.20;;;;;;;;;;764875;182;921578;-64
2022/02/02 14:39:16;;;;;;;6.03;2.90;;;;;;;;;;770891;178;918862;-64
2022/02/02 14:42:12;;;;;;;4.37;2.10;;;;;;;;;;775679;180;918730;-64
2022/02/02 14:44:23;;;;;;;6.77;2.73;;;;;;;;;;771818;178;920489;-64
2022/02/02 14:46:49;;;;;;;5.40;1.95;;;;;;;;;;778054;179;917285;-64
2022/02/02 14:49:24;;;;;;;4.00;2.57;;;;;;;;;;773016;177;919325;-64
2022/02/02 14:52:01;;;;;;;4.77;2.17;;;;;;;;;;760128;184;1005108;-64
2022/02/02 15:16:45;;;;;;;4.60;2.37;;;;;;;;;;766686;181;916256;-65
2022/02/02 15:27:14;;;;;;;3.73;2.33;;;;;;;;;;774388;179;919100;-65
2022/02/02 15:28:06;;;;;;;6.33;2.70;;;;;;;;;;772239;178;917879;-65
2022/02/02 15:30:34;;;;;;;6.80;2.80;;;;;;;;;;771876;178;920007;-65
2022/02/02 15:33:02;;;;;;;6.37;3.20;;;;;;;;;;775980;179;919997;-65
2022/02/02 15:35:26;;;;;;;6.03;2.80;;;;;;;;;;780230;181;880911;-65
2022/02/02 15:37:58;;;;;;;5.43;2.40;;;;;;;;;;773368;180;932429;-65
2022/02/02 15:40:25;;;;;;;5.03;2.93;;;;;;;;;;766196;177;914907;-65
2022/02/02 15:42:57;;;;;;;6.10;2.80;;;;;;;;;;771747;180;930487;-65
2022/02/02 15:54:45;;;;;;;3.50;2.80;;;;;;;;;;773687;178;1021522;-64
2022/02/02 16:03:06;;;;;;;2.43;1.77;;;;;;;;;;762122;182;919261;-65
2022/02/02 16:05:38;;;;;;;5.77;3.13;;;;;;;;;;769608;181;1021799;-66
2022/02/02 16:07:57;;;;;;;3.37;2.10;;;;;;;;;;778103;180;924809;-66
2022/02/02 16:10:28;;;;;;;8.75;3.15;;;;;;;;;;773332;177;919043;-65
2022/02/02 16:12:47;;;;;;;5.60;3.10;;;;;;;;;;772120;179;919531;-65
2022/02/02 16:15:17;;;;;;;8.87;3.23;;;;;;;;;;768157;177;918883;-65
2022/02/02 16:35:57;;;;;;;4.50;2.62;;;;;;;;;;777093;178;920671;-65
2022/02/02 16:38:18;;;;;;;6.03;2.70;;;;;;;;;;770965;180;918921;-65
2022/02/02 16:40:44;;;;;;;7.23;2.60;;;;;;;;;;775714;180;919325;-65
2022/02/02 16:43:13;;;;;;;3.72;2.08;;;;;;;;;;770517;177;919010;-63
2022/02/02 16:45:34;;;;;;;5.50;2.67;;;;;;;;;;763402;181;919222;-65
2022/02/02 16:47:59;;;;;;;7.80;2.63;;;;;;;;;;771541;179;919659;-65
2022/02/02 16:50:30;;;;;;;4.45;1.98;;;;;;;;;;773828;178;918972;-65
2022/02/02 16:52:55;;;;;;;5.03;2.43;;;;;;;;;;774160;180;920620;-65
2022/02/02 16:55:32;;;;;;;9.87;3.67;;;;;;;;;;771970;180;918702;-65
2022/02/02 16:57:56;;;;;;;5.77;3.23;;;;;;;;;;764053;181;919095;-64
2022/02/02 17:29:27;;;;;;;8.43;4.20;;;;;;;;;;774773;179;919051;-66
2022/02/02 17:33:28;;;;;;;5.37;2.63;;;;;;;;;;768154;178;914845;-66
2022/02/02 17:36:06;;;;;;;7.37;3.00;;;;;;;;;;773496;178;915433;-65
2022/02/02 17:38:22;;;;;;;10.20;2.80;;;;;;;;;;769319;178;916123;-65
2022/02/02 17:45:54;;;;;;;7.20;3.60;;;;;;;;;;771808;180;920181;-66
2022/02/02 18:01:41;;;;;;;8.27;3.80;;;;;;;;;;767616;180;920397;-65
2022/02/02 18:03:53;;;;;;;6.60;3.30;;;;;;;;;;777101;180;918928;-68
2022/02/02 18:14:10;;;;;;;9.27;3.27;;;;;;;;;;773645;177;919517;-66
2022/02/02 18:16:45;;;;;;;11.17;3.77;;;;;;;;;;775906;180;918074;-66
2022/02/02 18:21:06;;;;;;;10.90;3.70;;;;;;;;;;774152;180;919410;-66
2022/02/02 18:26:20;;;;;;;8.23;3.60;;;;;;;;;;773822;178;920038;-66
2022/02/02 18:28:49;;;;;;;12.68;4.28;;;;;;;;;;768556;180;919761;-65
2022/02/02 18:31:23;;;;;;;13.87;4.03;;;;;;;;;;772263;179;919143;-65
2022/02/02 18:34:02;;;;;;;6.63;3.23;;;;;;;;;;770800;180;919070;-65
2022/02/02 18:36:37;;;;;;;8.70;4.37;;;;;;;;;;768350;179;951684;-66
2022/02/02 18:44:36;;;;;;;7.27;3.43;;;;;;;;;;769793;177;1018678;-65
2022/02/02 18:49:33;;;;;;;7.57;3.90;;;;;;;;;;758533;182;919118;-65
2022/02/02 18:53:17;;;;;;;7.83;3.57;;;;;;;;;;764398;181;919051;-66
2022/02/02 18:54:46;;;;;;;7.47;3.67;;;;;;;;;;774449;178;1020447;-65
2022/02/02 18:57:27;;;;;;;7.73;3.80;;;;;;;;;;774511;180;922304;-66
2022/02/02 19:02:40;;;;;;;8.40;3.50;;;;;;;;;;765104;180;919212;-65
2022/02/02 19:05:02;;;;;;;8.05;3.83;;;;;;;;;;765801;181;1016887;-63
2022/02/02 19:14:51;;;;;;;8.80;4.57;;;;;;;;;;776134;180;1020545;-67
2022/02/02 19:26:08;;;;;;;5.50;3.50;;;;;;;;;;764858;181;934846;-65
2022/02/02 19:52:19;;;;;;;6.23;3.60;;;;;;;;;;772037;177;1021127;-65
2022/02/02 19:54:17;;;;;;;6.73;3.43;;;;;;;;;;764303;181;919561;-65
2022/02/02 19:55:50;;;;;;;5.80;3.80;;;;;;;;;;769902;180;919116;-66
2022/02/02 20:04:37;;;;;;;35.33;17.30;;;;;;;;;;777128;179;919206;-66
2022/02/02 20:11:15;;;;;;;15.23;8.07;;;;;;;;;;778864;179;919188;-68
2022/02/02 20:13:35;;;;;;;8.30;4.53;;;;;;;;;;771612;178;1018225;-67
2022/02/02 20:15:59;;;;;;;5.07;3.73;;;;;;;;;;765497;180;916061;-67
2022/02/02 20:18:26;;;;;;;14.13;7.93;;;;;;;;;;766359;181;915830;-67
2022/02/02 20:20:50;;;;;;;13.33;8.70;;;;;;;;;;775303;180;919402;-67
2022/02/02 20:23:17;;;;;;;20.77;12.40;;;;;;;;;;776879;177;914116;-67
2022/02/02 20:25:48;;;;;;;10.90;8.10;;;;;;;;;;778387;177;1012304;-68
2022/02/02 20:28:09;;;;;;;6.43;4.90;;;;;;;;;;773516;180;920210;-68
2022/02/02 20:30:34;;;;;;;6.55;3.87;;;;;;;;;;771955;181;918549;-68
2022/02/02 20:33:00;;;;;;;5.83;3.63;;;;;;;;;;778401;179;918981;-68
2022/02/02 20:35:26;;;;;;;7.90;2.57;;;;;;;;;;772350;180;919968;-68
2022/02/02 20:37:51;;;;;;;5.00;2.93;;;;;;;;;;771320;180;919758;-68
2022/02/02 20:40:17;;;;;;;7.57;3.77;;;;;;;;;;773353;180;918303;-69
2022/02/02 20:42:57;;;;;;;4.03;2.40;;;;;;;;;;774357;180;919153;-67
2022/02/02 21:00:20;;;;;;;3.50;2.17;;;;;;;;;;771440;178;919152;-68
2022/02/02 21:01:57;;;;;;;3.43;2.20;;;;;;;;;;775380;178;919549;-68
2022/02/02 21:04:03;;;;;;;3.50;2.17;;;;;;;;;;776772;178;948599;-67
2022/02/02 21:06:24;;;;;;;4.40;2.00;;;;;;;;;;774075;180;919988;-68
2022/02/02 21:11:34;;;;;;;24.63;12.60;;;;;;;;;;770876;180;919141;-68
2022/02/02 21:13:50;;;;;;;45.15;26.50;;;;;;;;;;770796;180;1018792;-67
2022/02/02 21:16:09;;;;;;;34.07;17.47;;;;;;;;;;774684;180;920454;-67
2022/02/02 21:18:37;;;;;;;24.23;10.67;;;;;;;;;;766791;181;920166;-67
2022/02/02 21:21:05;;;;;;;12.13;6.70;;;;;;;;;;771425;181;918822;-67
2022/02/02 21:23:37;;;;;;;28.03;13.30;;;;;;;;;;777807;179;919388;-68
2022/02/02 21:28:24;;;;;;;32.30;16.30;;;;;;;;;;773342;179;928385;-67
2022/02/02 21:30:50;;;;;;;20.80;13.27;;;;;;;;;;773956;180;919557;-67
2022/02/02 21:33:17;;;;;;;11.90;7.67;;;;;;;;;;779801;180;918913;-67
2022/02/02 21:35:42;;;;;;;12.43;7.93;;;;;;;;;;774587;177;919073;-67
2022/02/02 21:38:17;;;;;;;7.70;4.60;;;;;;;;;;774483;178;1021679;-66
2022/02/02 21:40:34;;;;;;;7.50;4.40;;;;;;;;;;777082;178;1017643;-68
2022/02/02 21:42:59;;;;;;;8.13;4.70;;;;;;;;;;763779;181;919465;-67
2022/02/02 21:45:25;;;;;;;15.53;9.27;;;;;;;;;;771649;181;919311;-67
2022/02/02 21:47:51;;;;;;;9.40;5.63;;;;;;;;;;777270;180;919217;-67
2022/02/02 21:50:19;;;;;;;19.43;10.80;;;;;;;;;;772690;180;919280;-67
2022/02/02 21:52:43;;;;;;;13.27;7.77;;;;;;;;;;773131;179;920101;-67
2022/02/02 21:55:09;;;;;;;12.77;6.10;;;;;;;;;;773185;178;919124;-68
2022/02/02 21:57:34;;;;;;;10.23;5.60;;;;;;;;;;778222;180;919020;-69
2022/02/02 22:00:00;;;;;;;13.93;7.65;;;;;;;;;;761868;182;918531;-68
2022/02/02 22:02:28;;;;;;;17.93;8.87;;;;;;;;;;766114;181;919552;-68
2022/02/02 22:04:53;;;;;;;14.13;7.60;;;;;;;;;;779838;179;858368;-68